Portada
METAR-TAF:

METAR-TAF

Aeroports :

Dhahran, Aràbia Saudita

latitud: 26-16N, longitud: 050-09E, altitud: 26 m

Observació

L'informe es va fer fa 9 minuts, a les 21:00 UTC
Vent calma
Temperatura 32°C
Humitat 52%
Pressió 997 hPa
Visibilitat 10 km o més
sense núvols per sota de 1500 mi sense presència de cumulonimbus.

METAR: OEDR 192100Z 00000KT CAVOK 32/21 Q0997 NOSIG

Hora: 00:09 (21:09 UTC)

Pronòstic

L'informe es va fer fa 7 hores i 9 minuts, a les 14:00 UTC
Pronòstic vàlid del 19 a les 18 UTC al 20 a les 24 UTC
Vent 8 kt del Oest
Visibilitat: 6000 m
Evolucionant progressivament
l' 20 a les 04 UTC al 20 a les 06 UTC
Vent 15 kt del Nord amb ràfegues de 25 kt
Probabilitat 30% :
Temporalment
l' 20 a les 06 UTC al 20 a les 12 UTC
Visibilitat: 1500 m
torb alta de pols
Evolucionant progressivament
l' 20 a les 10 UTC al 20 a les 12 UTC
Vent 15 kt del Nord-Est

TAF: OEDR 191400Z 1918/2024 28008KT 6000 NSC BECMG 2004/2006 35015G25KT PROB30 TEMPO 2006/2012 1500 BLDU BECMG 2010/2012 05015KT

Observacions i pronòstics meteorològics de més de 4000 aeroports (METAR i TAF).

Les estacions disponibles són els punts grocs i vermells al mapa.

Posi el ratolí al punt desitjat per veure el nom de l'estació.

Feu clic per veure les observacions i els pronòstics meteorològics.

Per canviar el mapa: feu clic els botons verds amb una creu de color negre per apropar; al botó verd amb un guió per allunyar la imatge; o en les fletxes verdes per a mapes adjacents.


METAR-TAF: